Time;durP1;ratioP1;P1;durP2;ratioP2;P2;SDS_P1;SDS_P2;PMS_P1;PMS_P2;Temp;Humidity;BMP_temperature;BMP_pressure;BME280_temperature;BME280_humidity;BME280_pressure;Samples;Min_cycle;Max_cycle;Signal;HPM_P1;HPM_P2
2023/07/03 00:02:15;;;;;;;10.95;3.65;;;19.50;84.40;;;;;;4843418;29;20053;-87
2023/07/03 00:04:45;;;;;;;9.02;3.35;;;19.40;84.20;;;;;;4843634;29;20028;-87
2023/07/03 00:07:12;;;;;;;9.43;3.25;;;19.40;84.10;;;;;;4841572;29;20079;-87
2023/07/03 00:09:38;;;;;;;10.00;3.90;;;19.40;84.10;;;;;;4842217;29;20044;-88
2023/07/03 00:12:04;;;;;;;11.00;4.10;;;19.40;84.00;;;;;;4842626;29;20046;-88
2023/07/03 00:14:30;;;;;;;9.05;3.88;;;19.40;84.00;;;;;;4827214;29;20117;-88
2023/07/03 00:16:56;;;;;;;10.38;3.65;;;19.30;84.10;;;;;;4842090;29;20503;-85
2023/07/03 00:19:26;;;;;;;9.35;3.88;;;19.30;84.10;;;;;;4841983;29;20093;-88
2023/07/03 00:21:52;;;;;;;12.75;3.30;;;19.30;84.00;;;;;;4842442;29;20110;-88
2023/07/03 00:24:18;;;;;;;12.10;3.92;;;19.30;84.00;;;;;;4842201;29;20436;-88
2023/07/03 00:26:44;;;;;;;10.80;3.42;;;19.30;84.00;;;;;;4841907;29;20109;-87
2023/07/03 00:29:09;;;;;;;9.65;3.67;;;19.20;84.00;;;;;;4842116;29;20077;-88
2023/07/03 00:31:35;;;;;;;9.23;3.33;;;19.20;84.10;;;;;;4842319;29;20154;-88
2023/07/03 00:34:01;;;;;;;12.93;3.70;;;19.20;84.10;;;;;;4841890;29;20026;-88
2023/07/03 00:36:27;;;;;;;10.70;3.88;;;19.20;84.00;;;;;;4842177;29;20493;-88
2023/07/03 00:38:58;;;;;;;8.63;3.92;;;19.20;84.00;;;;;;4842075;29;20030;-88
2023/07/03 00:41:27;;;;;;;8.68;3.50;;;19.20;84.00;;;;;;4827483;29;20038;-87
2023/07/03 00:43:53;;;;;;;10.95;3.97;;;19.10;83.90;;;;;;4841953;29;20030;-87
2023/07/03 00:46:18;;;;;;;8.07;3.42;;;19.10;83.90;;;;;;4826858;29;20033;-88
2023/07/03 00:48:45;;;;;;;10.05;3.58;;;19.10;83.90;;;;;;4842885;29;20415;-87
2023/07/03 00:51:13;;;;;;;10.52;3.47;;;19.10;83.90;;;;;;4841650;29;20038;-88
2023/07/03 00:53:39;;;;;;;9.43;3.20;;;19.00;83.70;;;;;;4841970;29;20037;-88
2023/07/03 00:56:06;;;;;;;8.15;3.15;;;19.10;83.90;;;;;;4842007;29;20429;-87
2023/07/03 00:58:32;;;;;;;8.85;3.60;;;19.00;83.80;;;;;;4841780;29;20018;-88
2023/07/03 01:01:10;;;;;;;10.15;3.55;;;19.00;83.80;;;;;;4843800;29;20042;-88
2023/07/03 01:03:45;;;;;;;8.82;3.50;;;19.00;83.90;;;;;;4841969;29;20026;-87
2023/07/03 01:06:22;;;;;;;10.40;3.20;;;19.00;83.80;;;;;;4843628;29;20026;-88
2023/07/03 01:08:52;;;;;;;9.52;3.47;;;19.00;83.90;;;;;;4861635;29;20196;-88
2023/07/03 01:11:22;;;;;;;12.05;4.13;;;19.00;83.90;;;;;;4846983;29;20044;-88
2023/07/03 01:13:51;;;;;;;10.60;3.10;;;19.00;84.00;;;;;;4883411;29;20041;-87
2023/07/03 01:16:18;;;;;;;9.82;3.65;;;19.00;84.00;;;;;;4868327;29;20030;-87
2023/07/03 01:18:45;;;;;;;9.98;3.97;;;19.00;84.10;;;;;;4853134;29;20089;-87
2023/07/03 01:21:22;;;;;;;9.82;3.55;;;19.00;84.00;;;;;;4868338;29;20029;-86
2023/07/03 01:23:56;;;;;;;12.32;3.90;;;19.00;83.90;;;;;;4858467;29;20029;-88
2023/07/03 01:26:24;;;;;;;10.00;3.97;;;18.90;83.90;;;;;;4865580;29;20104;-88
2023/07/03 01:28:59;;;;;;;11.77;3.67;;;18.90;84.00;;;;;;4848458;29;20029;-88
2023/07/03 01:31:26;;;;;;;10.20;3.33;;;18.90;84.00;;;;;;4864502;29;20046;-88
2023/07/03 01:33:54;;;;;;;10.70;3.50;;;18.90;84.00;;;;;;4833241;29;20041;-88
2023/07/03 01:36:20;;;;;;;11.02;3.63;;;18.90;84.00;;;;;;4832642;29;20040;-88
2023/07/03 01:38:48;;;;;;;7.80;3.40;;;18.90;83.90;;;;;;4833033;29;20033;-88
2023/07/03 01:41:16;;;;;;;9.43;3.22;;;18.80;83.90;;;;;;4864316;29;20033;-88
2023/07/03 01:43:46;;;;;;;9.68;3.85;;;18.80;83.90;;;;;;4847974;29;20380;-88
2023/07/03 01:46:12;;;;;;;;;;;18.80;84.10;;;;;;4848190;29;20037;-88
2023/07/03 01:48:38;;;;;;;7.72;3.40;;;18.70;84.00;;;;;;4832486;29;19912;-88
2023/07/03 01:51:06;;;;;;;9.20;3.70;;;18.70;84.20;;;;;;4847337;29;20041;-88
2023/07/03 01:53:51;;;;;;;10.77;3.92;;;18.70;84.30;;;;;;4847522;29;20056;-88
2023/07/03 01:56:30;;;;;;;10.48;3.30;;;18.70;84.20;;;;;;4864246;29;20037;-88
2023/07/03 01:59:12;;;;;;;8.18;3.78;;;18.60;84.20;;;;;;4864122;29;20040;-87
2023/07/03 02:01:55;;;;;;;9.00;3.38;;;18.60;84.40;;;;;;4847628;29;20482;-87
2023/07/03 02:04:28;;;;;;;9.25;3.92;;;18.50;84.30;;;;;;4864152;29;20033;-88
2023/07/03 02:06:56;;;;;;;11.27;3.15;;;18.40;84.50;;;;;;4863738;29;20448;-88
2023/07/03 02:09:23;;;;;;;10.85;3.60;;;18.40;84.70;;;;;;4862845;29;20076;-88
2023/07/03 02:11:51;;;;;;;13.57;4.22;;;18.40;84.80;;;;;;4832006;29;20049;-88
2023/07/03 02:14:17;;;;;;;8.60;3.63;;;18.40;85.00;;;;;;4832057;29;20033;-86
2023/07/03 02:16:46;;;;;;;10.00;3.83;;;18.40;85.00;;;;;;4847233;29;20033;-89
2023/07/03 02:19:15;;;;;;;12.20;4.57;;;18.40;85.00;;;;;;4848044;29;20026;-88
2023/07/03 02:21:44;;;;;;;9.18;3.90;;;18.40;85.10;;;;;;4863873;29;20499;-88
2023/07/03 02:24:13;;;;;;;9.35;3.60;;;18.40;85.10;;;;;;4847792;29;20040;-89
2023/07/03 02:26:40;;;;;;;10.05;3.55;;;18.40;85.20;;;;;;4845804;29;20408;-87
2023/07/03 02:29:05;;;;;;;13.10;3.92;;;18.40;85.30;;;;;;4863504;29;20061;-87
2023/07/03 02:31:31;;;;;;;14.90;4.03;;;18.30;85.30;;;;;;4846948;29;20092;-88
2023/07/03 02:33:57;;;;;;;11.45;4.10;;;18.30;85.40;;;;;;4831666;29;20033;-87
2023/07/03 02:36:28;;;;;;;10.88;3.45;;;18.30;85.50;;;;;;4846543;29;20061;-87
2023/07/03 02:38:54;;;;;;;11.93;4.40;;;18.30;85.70;;;;;;4847652;29;20033;-87
2023/07/03 02:41:22;;;;;;;11.23;4.25;;;18.30;85.90;;;;;;4831639;29;20038;-88
2023/07/03 02:43:48;;;;;;;10.93;3.80;;;18.30;85.90;;;;;;4863917;29;20026;-86
2023/07/03 02:46:14;;;;;;;12.02;4.00;;;18.30;86.00;;;;;;4831903;29;20036;-88
2023/07/03 02:48:40;;;;;;;8.73;3.67;;;18.30;86.20;;;;;;4831938;29;20036;-88
2023/07/03 02:51:06;;;;;;;13.23;3.92;;;18.30;86.30;;;;;;4847200;29;20037;-88
2023/07/03 02:53:34;;;;;;;14.52;4.18;;;18.30;86.40;;;;;;4864214;29;20402;-89
2023/07/03 02:56:00;;;;;;;12.85;4.13;;;18.30;86.40;;;;;;4850238;29;20042;-88
2023/07/03 02:58:26;;;;;;;13.65;4.47;;;18.30;86.60;;;;;;4863201;29;20038;-88
2023/07/03 03:00:53;;;;;;;11.68;3.80;;;18.30;86.80;;;;;;4832192;29;20029;-89
2023/07/03 03:03:19;;;;;;;12.35;4.03;;;18.20;86.80;;;;;;4855202;29;20052;-85
2023/07/03 03:05:45;;;;;;;16.95;4.65;;;18.30;86.90;;;;;;4869824;29;20026;-87
2023/07/03 03:08:11;;;;;;;11.68;4.00;;;18.20;87.00;;;;;;4870230;29;20038;-87
2023/07/03 03:10:39;;;;;;;10.07;3.60;;;18.30;87.20;;;;;;4867070;29;20067;-85
2023/07/03 03:13:05;;;;;;;11.18;3.60;;;18.30;87.30;;;;;;4867038;29;20018;-87
2023/07/03 03:15:35;;;;;;;14.98;4.35;;;18.30;87.30;;;;;;4854674;29;20041;-88
2023/07/03 03:18:02;;;;;;;10.00;4.10;;;18.30;87.50;;;;;;4845535;29;20101;-88
2023/07/03 03:20:27;;;;;;;12.43;4.03;;;18.20;87.50;;;;;;4843713;29;20396;-89
2023/07/03 03:22:53;;;;;;;15.80;3.72;;;18.20;87.80;;;;;;4828234;29;20036;-88
2023/07/03 03:25:19;;;;;;;11.82;4.03;;;18.20;87.90;;;;;;4843370;29;20606;-87
2023/07/03 03:27:45;;;;;;;11.10;4.45;;;18.20;88.00;;;;;;4812979;29;20026;-88
2023/07/03 03:30:11;;;;;;;14.63;4.22;;;18.20;88.20;;;;;;4828090;29;20146;-88
2023/07/03 03:32:37;;;;;;;13.75;4.50;;;18.20;88.40;;;;;;4827973;29;20050;-88
2023/07/03 03:35:02;;;;;;;17.05;4.72;;;18.20;88.60;;;;;;4827952;29;20088;-88
2023/07/03 03:37:28;;;;;;;15.50;5.18;;;18.20;88.60;;;;;;4844057;29;20030;-88
2023/07/03 03:39:54;;;;;;;15.70;5.47;;;18.30;88.80;;;;;;4827795;29;20030;-88
2023/07/03 03:42:19;;;;;;;14.77;4.45;;;18.30;88.90;;;;;;4827516;29;20488;-87
2023/07/03 03:44:45;;;;;;;11.55;4.47;;;18.30;88.90;;;;;;4827720;29;20056;-88
2023/07/03 03:47:11;;;;;;;14.38;4.25;;;18.20;89.00;;;;;;4811731;29;20038;-89
2023/07/03 03:49:37;;;;;;;14.70;4.78;;;18.20;89.10;;;;;;4827611;29;20120;-88
2023/07/03 03:52:06;;;;;;;13.20;4.65;;;18.30;89.40;;;;;;4827129;29;20137;-88
2023/07/03 03:54:32;;;;;;;13.35;4.60;;;18.30;89.60;;;;;;4842755;29;20034;-88
2023/07/03 03:56:58;;;;;;;15.85;4.57;;;18.20;89.70;;;;;;4827548;29;20525;-88
2023/07/03 03:59:24;;;;;;;13.95;4.95;;;18.20;89.90;;;;;;4842466;29;20030;-87
2023/07/03 04:01:50;;;;;;;16.02;4.65;;;18.20;90.00;;;;;;4842781;29;20046;-88
2023/07/03 04:04:16;;;;;;;18.13;5.43;;;18.20;90.00;;;;;;4827030;29;20404;-88
2023/07/03 04:06:43;;;;;;;15.23;4.45;;;18.20;90.10;;;;;;4842976;29;20030;-87
2023/07/03 04:09:09;;;;;;;14.95;5.05;;;18.30;90.20;;;;;;4842655;29;20393;-87
2023/07/03 04:11:38;;;;;;;15.65;4.65;;;18.20;90.20;;;;;;4841710;29;20496;-88
2023/07/03 04:14:04;;;;;;;19.15;4.80;;;18.20;90.30;;;;;;4842097;29;20041;-88
2023/07/03 04:16:31;;;;;;;14.32;4.70;;;18.20;90.30;;;;;;4842288;29;20445;-88
2023/07/03 04:18:57;;;;;;;16.00;4.80;;;18.20;90.40;;;;;;4842064;29;20045;-89
2023/07/03 04:21:26;;;;;;;13.05;4.68;;;18.20;90.40;;;;;;4842787;29;20064;-83
2023/07/03 04:23:52;;;;;;;13.75;4.43;;;18.30;90.50;;;;;;4843094;29;20057;-87
2023/07/03 04:26:17;;;;;;;13.25;4.72;;;18.20;90.50;;;;;;4842816;29;20073;-87
2023/07/03 04:28:43;;;;;;;12.23;4.40;;;18.20;90.50;;;;;;4841108;29;20022;-86
2023/07/03 04:31:09;;;;;;;16.08;4.90;;;18.20;90.80;;;;;;4826524;29;20046;-86
2023/07/03 04:33:34;;;;;;;14.82;4.95;;;18.20;90.60;;;;;;4826107;29;20030;-87
2023/07/03 04:36:00;;;;;;;13.98;5.00;;;18.30;90.60;;;;;;4841604;29;20038;-87
2023/07/03 04:38:26;;;;;;;13.60;4.50;;;18.20;90.60;;;;;;4841440;29;20337;-86
2023/07/03 04:40:53;;;;;;;16.65;5.50;;;18.20;90.60;;;;;;4841411;29;20056;-85
2023/07/03 04:43:19;;;;;;;14.73;4.70;;;18.20;90.70;;;;;;4842444;29;20034;-86
2023/07/03 04:45:48;;;;;;;14.82;5.45;;;18.20;90.70;;;;;;4841362;29;20045;-87
2023/07/03 04:48:15;;;;;;;16.90;5.65;;;18.20;90.80;;;;;;4842331;29;20041;-86
2023/07/03 04:50:41;;;;;;;17.90;5.15;;;18.10;90.80;;;;;;4841697;29;20067;-85
2023/07/03 04:53:06;;;;;;;13.93;4.30;;;18.10;90.90;;;;;;4845525;29;20046;-86
2023/07/03 04:55:33;;;;;;;12.27;5.00;;;18.10;90.90;;;;;;4849914;29;20018;-85
2023/07/03 04:58:04;;;;;;;13.85;4.43;;;18.10;91.00;;;;;;4865673;29;20041;-86
2023/07/03 05:00:31;;;;;;;13.57;4.30;;;18.00;91.10;;;;;;4869608;29;20050;-84
2023/07/03 05:02:58;;;;;;;18.85;5.18;;;18.00;91.10;;;;;;4867975;29;20040;-87
2023/07/03 05:05:24;;;;;;;17.38;5.03;;;18.10;91.20;;;;;;4854653;29;20464;-87
2023/07/03 05:07:52;;;;;;;19.10;5.43;;;18.10;91.20;;;;;;4845878;29;20116;-87
2023/07/03 05:10:21;;;;;;;13.85;4.50;;;18.10;91.20;;;;;;4845939;29;20054;-88
2023/07/03 05:12:47;;;;;;;16.85;5.25;;;18.10;91.20;;;;;;4845497;29;20395;-88
2023/07/03 05:15:14;;;;;;;16.05;4.90;;;18.20;91.30;;;;;;4845860;29;20026;-88
2023/07/03 05:17:43;;;;;;;13.23;4.63;;;18.10;91.40;;;;;;4845482;29;20033;-89
2023/07/03 05:20:12;;;;;;;15.60;4.85;;;18.20;91.40;;;;;;4815651;29;20045;-88
2023/07/03 05:22:40;;;;;;;18.83;5.25;;;18.20;91.40;;;;;;4845163;29;20026;-88
2023/07/03 05:25:07;;;;;;;13.80;5.32;;;18.10;91.40;;;;;;4846088;29;20030;-89
2023/07/03 05:27:34;;;;;;;16.30;4.85;;;18.10;91.50;;;;;;4846216;29;20026;-88
2023/07/03 05:29:59;;;;;;;15.80;4.95;;;18.10;91.50;;;;;;4845321;29;20037;-89
2023/07/03 05:32:26;;;;;;;17.55;4.78;;;18.10;91.60;;;;;;4845355;29;20058;-88
2023/07/03 05:34:51;;;;;;;15.55;4.68;;;18.10;91.60;;;;;;4844990;29;20079;-88
2023/07/03 05:37:18;;;;;;;14.70;4.90;;;18.10;91.60;;;;;;4829859;29;20434;-87
2023/07/03 05:39:47;;;;;;;13.30;4.75;;;18.10;91.70;;;;;;4829480;29;20521;-88
2023/07/03 05:42:14;;;;;;;13.68;5.43;;;18.10;91.80;;;;;;4845000;29;20445;-86
2023/07/03 05:44:40;;;;;;;17.13;4.93;;;18.10;91.80;;;;;;4844505;29;20074;-87
2023/07/03 05:47:09;;;;;;;12.05;4.75;;;18.20;91.80;;;;;;4844646;29;20174;-87
2023/07/03 05:49:34;;;;;;;15.88;4.90;;;18.20;91.80;;;;;;4844394;29;20064;-86
2023/07/03 05:52:00;;;;;;;15.27;5.00;;;18.20;91.90;;;;;;4828717;29;20078;-87
2023/07/03 05:54:26;;;;;;;13.55;4.53;;;18.30;91.90;;;;;;4845340;29;20101;-87
2023/07/03 05:56:59;;;;;;;14.02;5.28;;;18.30;91.90;;;;;;4828610;29;20038;-87
2023/07/03 05:59:26;;;;;;;15.98;5.00;;;18.40;92.00;;;;;;4829131;29;20054;-86
2023/07/03 06:01:55;;;;;;;13.02;4.45;;;18.40;91.90;;;;;;4844081;29;20034;-86
2023/07/03 06:04:22;;;;;;;12.07;4.53;;;18.40;91.90;;;;;;4845008;29;20439;-86
2023/07/03 06:06:52;;;;;;;14.18;4.47;;;18.50;92.00;;;;;;4845202;29;20018;-86
2023/07/03 06:09:18;;;;;;;17.35;4.90;;;18.50;92.00;;;;;;4843732;29;20132;-86
2023/07/03 06:11:43;;;;;;;17.40;4.15;;;18.60;92.00;;;;;;4843012;29;20473;-86
2023/07/03 06:14:17;;;;;;;19.98;5.55;;;18.60;92.00;;;;;;4828731;29;20038;-87
2023/07/03 06:16:44;;;;;;;14.40;5.38;;;18.70;92.00;;;;;;4845296;29;20034;-88
2023/07/03 06:19:11;;;;;;;16.55;5.47;;;18.70;92.00;;;;;;4843748;29;20045;-88
2023/07/03 06:21:37;;;;;;;13.27;5.38;;;18.70;92.00;;;;;;4844002;29;20042;-86
2023/07/03 06:24:08;;;;;;;17.63;5.57;;;18.70;92.00;;;;;;4828592;29;20166;-88
2023/07/03 06:26:33;;;;;;;13.35;4.65;;;18.70;92.00;;;;;;4844109;29;20491;-87
2023/07/03 06:29:05;;;;;;;11.60;4.65;;;18.80;92.00;;;;;;4828466;29;20034;-88
2023/07/03 06:31:31;;;;;;;11.85;4.55;;;18.80;92.00;;;;;;4828973;29;20154;-87
2023/07/03 06:33:57;;;;;;;16.08;5.35;;;18.80;92.00;;;;;;4844577;29;20033;-87
2023/07/03 06:36:23;;;;;;;16.67;5.40;;;18.80;91.90;;;;;;4813610;29;20129;-87
2023/07/03 06:38:52;;;;;;;15.27;4.78;;;18.80;91.90;;;;;;4832110;29;20124;-87
2023/07/03 06:41:19;;;;;;;16.33;5.25;;;18.90;91.90;;;;;;4845802;29;20034;-88
2023/07/03 06:43:45;;;;;;;15.60;4.80;;;18.90;91.90;;;;;;4829984;29;20033;-89
2023/07/03 06:46:10;;;;;;;16.70;4.57;;;18.80;91.90;;;;;;4866176;29;20030;-87
2023/07/03 06:48:37;;;;;;;16.00;5.55;;;18.80;91.90;;;;;;4868241;29;20067;-88
2023/07/03 06:51:08;;;;;;;13.18;4.80;;;18.80;91.90;;;;;;4867283;29;20033;-87
2023/07/03 06:53:34;;;;;;;20.20;5.28;;;18.80;91.90;;;;;;4867741;29;20037;-87
2023/07/03 06:56:00;;;;;;;16.17;5.28;;;18.80;91.90;;;;;;4848130;29;20033;-87
2023/07/03 06:58:27;;;;;;;11.15;4.15;;;18.80;92.10;;;;;;4847401;29;20077;-88
2023/07/03 07:00:53;;;;;;;17.75;5.10;;;18.80;91.90;;;;;;4844052;29;20098;-88
2023/07/03 07:03:19;;;;;;;13.07;4.00;;;18.80;91.90;;;;;;4828543;29;20041;-88
2023/07/03 07:05:45;;;;;;;12.30;4.35;;;18.90;91.90;;;;;;4828187;29;20030;-88
2023/07/03 07:08:16;;;;;;;13.68;4.40;;;19.00;91.90;;;;;;4843294;29;20078;-88
2023/07/03 07:10:46;;;;;;;17.42;4.85;;;19.00;91.80;;;;;;4828608;29;20050;-88
2023/07/03 07:13:13;;;;;;;11.57;4.72;;;19.10;91.80;;;;;;4843438;29;20481;-88
2023/07/03 07:15:40;;;;;;;11.75;4.90;;;19.10;91.70;;;;;;4827798;29;20031;-88
2023/07/03 07:18:08;;;;;;;11.93;4.15;;;19.10;91.70;;;;;;4842972;29;20471;-88
2023/07/03 07:20:38;;;;;;;14.70;4.85;;;19.10;91.60;;;;;;4827736;29;20484;-87
2023/07/03 07:23:04;;;;;;;14.63;4.30;;;19.10;91.60;;;;;;4844330;29;20063;-86
2023/07/03 07:25:29;;;;;;;14.88;4.72;;;19.10;91.60;;;;;;4843063;29;20030;-88
2023/07/03 07:27:55;;;;;;;14.98;4.05;;;19.10;91.60;;;;;;4842788;29;20022;-88
2023/07/03 07:30:22;;;;;;;11.02;4.40;;;19.10;91.60;;;;;;4843246;29;20545;-89
2023/07/03 07:32:49;;;;;;;10.60;4.05;;;19.10;91.60;;;;;;4844326;29;20437;-90
2023/07/03 07:35:15;;;;;;;11.52;4.80;;;19.10;91.60;;;;;;4844250;29;20098;-90
2023/07/03 07:37:41;;;;;;;16.25;4.75;;;19.10;91.60;;;;;;4828308;29;20037;-88
2023/07/03 07:40:08;;;;;;;13.73;4.38;;;19.10;91.50;;;;;;4842830;29;20026;-89
2023/07/03 07:42:34;;;;;;;11.40;4.22;;;19.10;91.50;;;;;;4843007;29;20090;-88
2023/07/03 07:45:00;;;;;;;13.77;4.07;;;19.10;91.50;;;;;;4827631;29;20540;-87
2023/07/03 07:47:26;;;;;;;14.82;4.68;;;19.20;91.50;;;;;;4843682;29;20147;-88
2023/07/03 07:49:51;;;;;;;10.18;4.15;;;19.20;91.50;;;;;;4826816;29;20026;-86
2023/07/03 07:52:17;;;;;;;12.77;4.75;;;19.20;91.50;;;;;;4843274;29;20034;-86
2023/07/03 07:54:43;;;;;;;13.85;4.45;;;19.30;91.50;;;;;;4812272;29;20026;-86
2023/07/03 07:57:08;;;;;;;11.57;4.03;;;19.30;91.50;;;;;;4842030;29;20541;-86
2023/07/03 07:59:35;;;;;;;11.68;4.55;;;19.30;91.50;;;;;;4841860;29;20488;-86
2023/07/03 08:02:01;;;;;;;15.45;4.13;;;19.40;91.50;;;;;;4841513;29;20070;-85
2023/07/03 08:04:27;;;;;;;16.92;4.60;;;19.40;91.50;;;;;;4841883;29;20030;-86
2023/07/03 08:06:53;;;;;;;13.30;4.18;;;19.40;91.70;;;;;;4842948;29;20041;-85
2023/07/03 08:09:21;;;;;;;10.18;4.15;;;19.50;91.50;;;;;;4842063;29;20066;-86
2023/07/03 08:11:46;;;;;;;11.43;4.55;;;19.50;91.40;;;;;;4859776;29;20069;-85
2023/07/03 08:14:12;;;;;;;9.75;4.10;;;19.60;91.50;;;;;;4829778;29;20502;-86
2023/07/03 08:16:38;;;;;;;11.13;4.20;;;19.60;91.40;;;;;;4844923;29;20038;-85
2023/07/03 08:19:03;;;;;;;10.98;3.97;;;19.60;91.10;;;;;;4829754;29;20029;-86
2023/07/03 08:21:29;;;;;;;11.20;4.28;;;19.60;91.00;;;;;;4829762;29;20045;-86
2023/07/03 08:23:55;;;;;;;11.80;3.97;;;19.60;91.10;;;;;;4829844;29;20074;-86
2023/07/03 08:26:22;;;;;;;16.23;4.40;;;19.60;90.90;;;;;;4829841;29;20029;-85
2023/07/03 08:28:51;;;;;;;10.88;4.00;;;19.70;91.00;;;;;;4861393;29;20055;-86
2023/07/03 08:31:17;;;;;;;12.98;4.32;;;19.70;91.00;;;;;;4845704;29;20128;-86
2023/07/03 08:33:43;;;;;;;11.50;3.70;;;19.80;90.90;;;;;;4836649;29;20057;-86
2023/07/03 08:36:08;;;;;;;10.63;3.58;;;19.90;90.90;;;;;;4845767;29;20034;-86
2023/07/03 08:38:34;;;;;;;10.35;3.58;;;19.90;90.70;;;;;;4868663;29;20018;-85
2023/07/03 08:41:01;;;;;;;12.32;3.63;;;19.90;90.50;;;;;;4853565;29;20033;-84
2023/07/03 08:43:40;;;;;;;9.82;3.50;;;19.90;90.40;;;;;;4868887;29;20037;-86
2023/07/03 08:46:11;;;;;;;8.20;3.30;;;20.00;90.40;;;;;;4868735;29;20018;-86
2023/07/03 08:48:38;;;;;;;10.85;3.22;;;20.10;90.30;;;;;;4860440;29;20033;-86
2023/07/03 08:51:07;;;;;;;9.90;3.45;;;20.20;90.30;;;;;;4861609;29;20038;-86
2023/07/03 08:53:40;;;;;;;8.10;3.15;;;20.20;90.10;;;;;;4844729;29;20035;-87
2023/07/03 08:56:20;;;;;;;5.40;2.47;;;20.30;89.90;;;;;;4844544;29;20500;-87
2023/07/03 08:58:46;;;;;;;7.05;2.58;;;20.40;89.60;;;;;;4860975;29;20104;-86
2023/07/03 09:01:14;;;;;;;7.32;2.60;;;20.40;89.30;;;;;;4860837;29;20065;-86
2023/07/03 09:03:40;;;;;;;7.53;3.00;;;20.40;88.70;;;;;;4844364;29;20503;-86
2023/07/03 09:06:22;;;;;;;9.82;3.50;;;20.50;88.10;;;;;;4860926;29;20034;-86
2023/07/03 09:08:48;;;;;;;9.13;3.30;;;20.50;87.70;;;;;;4861267;29;20535;-88
2023/07/03 09:11:16;;;;;;;9.00;3.40;;;20.50;87.90;;;;;;4860816;29;20146;-87
2023/07/03 09:13:49;;;;;;;15.30;4.30;;;20.50;88.20;;;;;;4860899;29;20504;-87
2023/07/03 09:16:19;;;;;;;13.48;3.90;;;20.50;88.40;;;;;;4860857;29;20052;-87
2023/07/03 09:18:47;;;;;;;;;;;20.60;88.60;;;;;;4861351;29;20082;-87
2023/07/03 09:21:14;;;;;;;12.82;3.60;;;20.60;88.50;;;;;;4860845;29;19915;-86
2023/07/03 09:23:51;;;;;;;9.65;3.40;;;20.60;87.70;;;;;;4829234;29;20133;-85
2023/07/03 09:26:29;;;;;;;9.25;3.50;;;20.60;87.70;;;;;;4861084;29;20082;-86
2023/07/03 09:28:58;;;;;;;10.35;3.20;;;20.70;87.70;;;;;;4860772;29;20033;-84
2023/07/03 09:31:27;;;;;;;11.50;3.37;;;20.70;87.10;;;;;;4844897;29;20034;-86
2023/07/03 09:33:53;;;;;;;7.20;2.92;;;20.60;86.60;;;;;;4844372;29;20310;-86
2023/07/03 09:36:37;;;;;;;8.75;2.70;;;20.60;86.50;;;;;;4828837;29;20029;-87
2023/07/03 09:39:12;;;;;;;8.73;3.30;;;20.60;86.50;;;;;;4860567;29;20108;-87
2023/07/03 09:41:38;;;;;;;12.52;3.58;;;20.50;86.40;;;;;;4860933;29;20033;-86
2023/07/03 09:44:12;;;;;;;11.45;4.03;;;20.40;86.10;;;;;;4844179;29;20495;-86
2023/07/03 09:46:38;;;;;;;10.48;3.63;;;20.30;85.90;;;;;;4846683;29;20480;-86
2023/07/03 09:49:07;;;;;;;8.82;3.10;;;20.30;86.20;;;;;;4863487;29;20026;-86
2023/07/03 09:51:36;;;;;;;11.43;3.08;;;20.30;86.60;;;;;;4863577;29;20116;-86
2023/07/03 09:54:07;;;;;;;9.77;3.85;;;20.30;86.80;;;;;;4863647;29;20105;-85
2023/07/03 09:56:35;;;;;;;12.88;3.42;;;20.30;86.80;;;;;;4863823;29;20033;-86
2023/07/03 09:59:04;;;;;;;8.73;3.08;;;20.40;86.80;;;;;;4847352;29;20030;-85
2023/07/03 10:01:32;;;;;;;8.65;3.25;;;20.40;86.80;;;;;;4847179;29;20045;-86
2023/07/03 10:04:10;;;;;;;7.32;2.70;;;20.50;86.60;;;;;;4847164;29;20077;-86
2023/07/03 10:06:37;;;;;;;10.30;2.90;;;20.60;86.50;;;;;;4863902;29;20053;-86
2023/07/03 10:09:16;;;;;;;10.02;2.38;;;20.60;86.10;;;;;;4863568;29;20464;-86
2023/07/03 10:12:02;;;;;;;7.30;2.65;;;20.60;85.10;;;;;;4843578;29;20137;-86
2023/07/03 10:14:46;;;;;;;8.55;2.55;;;20.50;84.20;;;;;;4844141;29;20030;-86
2023/07/03 10:17:13;;;;;;;9.60;3.05;;;20.40;84.10;;;;;;4843751;29;20059;-86
2023/07/03 10:19:45;;;;;;;8.55;2.47;;;20.30;83.30;;;;;;4845252;29;20065;-87
2023/07/03 10:22:12;;;;;;;7.35;2.50;;;20.20;83.20;;;;;;4845141;29;20037;-86
2023/07/03 10:24:40;;;;;;;7.15;2.30;;;20.20;83.40;;;;;;4844880;29;20040;-86
2023/07/03 10:27:07;;;;;;;6.60;2.25;;;20.20;83.20;;;;;;4845303;29;20038;-85
2023/07/03 10:29:38;;;;;;;8.88;2.47;;;20.10;82.70;;;;;;4829072;29;20026;-86
2023/07/03 10:32:06;;;;;;;6.53;2.30;;;20.10;82.30;;;;;;4853141;29;20014;-85
2023/07/03 10:34:45;;;;;;;6.10;2.35;;;20.10;82.50;;;;;;4868260;29;20160;-85
2023/07/03 10:37:13;;;;;;;10.52;2.65;;;20.10;82.80;;;;;;4867694;29;20061;-86
2023/07/03 10:40:00;;;;;;;7.03;2.30;;;20.20;82.20;;;;;;4868354;29;20018;-85
2023/07/03 10:42:47;;;;;;;9.88;2.90;;;20.20;82.00;;;;;;4867986;29;20081;-85
2023/07/03 10:45:14;;;;;;;7.82;2.38;;;20.30;82.00;;;;;;4867286;29;20045;-86
2023/07/03 10:47:47;;;;;;;5.95;2.10;;;20.40;82.00;;;;;;4867961;29;20058;-86
2023/07/03 10:50:13;;;;;;;4.80;1.90;;;20.50;81.50;;;;;;4858691;29;20026;-86
2023/07/03 10:52:57;;;;;;;7.35;2.47;;;20.60;81.50;;;;;;4828268;29;20038;-86
2023/07/03 10:55:33;;;;;;;5.32;2.45;;;20.60;81.00;;;;;;4843195;29;20034;-86
2023/07/03 10:58:28;;;;;;;5.18;2.05;;;20.70;80.50;;;;;;4843033;29;20132;-87
2023/07/03 11:01:23;;;;;;;4.32;1.70;;;20.70;80.20;;;;;;4812164;29;20146;-86
2023/07/03 11:03:55;;;;;;;6.07;2.10;;;20.70;80.20;;;;;;4842521;29;20045;-86
2023/07/03 11:06:53;;;;;;;5.47;1.92;;;20.70;80.00;;;;;;4844268;29;20054;-86
2023/07/03 11:09:34;;;;;;;7.07;2.30;;;20.80;79.90;;;;;;4795430;29;20412;-87
2023/07/03 11:12:25;;;;;;;9.55;2.40;;;20.70;79.90;;;;;;4845663;29;20053;-85
2023/07/03 11:15:06;;;;;;;5.70;2.17;;;20.80;79.80;;;;;;4832734;29;20041;-86
2023/07/03 11:17:59;;;;;;;7.43;2.60;;;20.80;79.70;;;;;;4845986;29;20096;-86
2023/07/03 11:23:23;;;;;;;6.78;2.20;;;20.80;79.80;;;;;;5123943;23;20069;-85
2023/07/03 11:26:14;;;;;;;7.35;2.33;;;20.80;79.80;;;;;;4818131;29;20129;-87
2023/07/03 11:28:47;;;;;;;6.82;2.35;;;20.80;79.20;;;;;;4844131;29;20037;-85
2023/07/03 11:31:15;;;;;;;5.93;1.90;;;20.80;78.10;;;;;;4843943;29;20038;-86
2023/07/03 11:33:42;;;;;;;11.60;3.00;;;20.80;78.10;;;;;;4842828;29;20157;-86
2023/07/03 11:36:34;;;;;;;6.82;2.25;;;20.80;78.50;;;;;;4843786;29;20104;-85
2023/07/03 11:39:19;;;;;;;6.10;2.38;;;20.90;78.80;;;;;;4828415;29;20034;-86
2023/07/03 11:42:05;;;;;;;8.70;2.13;;;21.00;79.00;;;;;;4850849;29;20014;-85
2023/07/03 11:44:31;;;;;;;8.60;2.53;;;21.00;78.40;;;;;;4838434;29;20093;-86
2023/07/03 11:47:04;;;;;;;7.40;2.33;;;21.10;78.00;;;;;;4851659;29;20025;-84
2023/07/03 11:49:32;;;;;;;8.40;2.35;;;21.10;77.70;;;;;;4851376;29;20026;-84
2023/07/03 11:52:03;;;;;;;5.85;2.28;;;21.20;77.00;;;;;;4858991;29;20077;-87
2023/07/03 11:54:36;;;;;;;5.28;2.08;;;21.20;77.30;;;;;;4828045;29;20227;-86
2023/07/03 11:57:32;;;;;;;7.00;2.13;;;21.40;77.70;;;;;;4844363;29;20384;-86
2023/07/03 12:00:18;;;;;;;6.90;2.05;;;21.40;76.80;;;;;;4844208;29;20026;-86
2023/07/03 12:02:51;;;;;;;5.55;2.15;;;21.40;77.00;;;;;;4842201;29;20373;-86
2023/07/03 12:05:41;;;;;;;7.50;2.13;;;21.40;77.40;;;;;;4843359;29;20030;-86
2023/07/03 12:08:11;;;;;;;6.85;2.40;;;21.40;77.40;;;;;;4826255;29;20061;-86
2023/07/03 12:10:42;;;;;;;7.38;2.70;;;21.40;77.50;;;;;;4827089;29;20045;-86
2023/07/03 12:13:40;;;;;;;6.47;2.58;;;21.30;77.60;;;;;;4843372;29;20026;-86
2023/07/03 12:16:14;;;;;;;9.18;2.60;;;21.30;77.70;;;;;;4806990;29;20041;-86
2023/07/03 12:18:40;;;;;;;8.48;2.30;;;21.20;78.00;;;;;;4826861;29;20029;-85
2023/07/03 12:21:06;;;;;;;7.82;2.80;;;21.20;78.20;;;;;;4811604;29;20038;-85
2023/07/03 12:23:36;;;;;;;5.95;2.10;;;21.20;78.40;;;;;;4805920;29;20062;-85
2023/07/03 12:26:05;;;;;;;8.65;2.20;;;21.30;78.70;;;;;;4806410;29;20452;-86
2023/07/03 12:28:31;;;;;;;8.63;2.50;;;21.40;78.80;;;;;;4820226;29;20134;-85
2023/07/03 12:31:12;;;;;;;6.88;2.28;;;21.60;79.00;;;;;;4790429;29;20054;-85
2023/07/03 12:33:47;;;;;;;5.53;2.10;;;21.70;79.10;;;;;;4790321;29;20065;-86
2023/07/03 12:36:20;;;;;;;5.07;1.63;;;21.70;78.70;;;;;;4805328;29;20019;-85
2023/07/03 12:38:45;;;;;;;5.82;2.15;;;21.70;78.10;;;;;;4805034;29;20458;-86
2023/07/03 12:41:11;;;;;;;6.03;2.10;;;21.80;77.70;;;;;;4805511;29;20492;-85
2023/07/03 12:43:37;;;;;;;8.85;2.13;;;21.80;76.80;;;;;;4790156;29;20078;-86
2023/07/03 12:46:02;;;;;;;3.72;1.63;;;21.80;75.90;;;;;;4790082;29;20116;-85
2023/07/03 12:48:28;;;;;;;6.40;1.88;;;21.80;75.80;;;;;;4805078;29;20121;-85
2023/07/03 12:50:56;;;;;;;5.50;2.00;;;21.80;75.00;;;;;;4790285;29;20137;-86
2023/07/03 12:53:22;;;;;;;7.28;2.00;;;21.80;74.20;;;;;;4805015;29;20072;-87
2023/07/03 12:55:56;;;;;;;4.93;1.70;;;21.70;73.50;;;;;;4804523;29;20034;-85